sensor_id;sensor_type;location;lat;lon;timestamp;pressure;altitude;pressure_sealevel;temperature;humidity
7075;BME280;3578;51.568;6.932;2022-10-26T00:01:03;53075.72;;;-144.14;100.00
7075;BME280;3578;51.568;6.932;2022-10-26T00:03:30;53029.63;;;-144.14;100.00
7075;BME280;3578;51.568;6.932;2022-10-26T00:06:04;53065.69;;;-144.14;100.00
7075;BME280;3578;51.568;6.932;2022-10-26T00:08:32;53053.69;;;-144.14;100.00
7075;BME280;3578;51.568;6.932;2022-10-26T00:10:59;53057.69;;;-144.14;100.00
7075;BME280;3578;51.568;6.932;2022-10-26T00:13:26;53041.66;;;-144.14;100.00
7075;BME280;3578;51.568;6.932;2022-10-26T00:15:55;53049.66;;;-144.14;100.00
7075;BME280;3578;51.568;6.932;2022-10-26T00:18:22;53001.56;;;-144.14;100.00
7075;BME280;3578;51.568;6.932;2022-10-26T00:20:49;53033.63;;;-144.14;100.00
7075;BME280;3578;51.568;6.932;2022-10-26T00:23:16;53071.72;;;-144.14;100.00
7075;BME280;3578;51.568;6.932;2022-10-26T00:25:43;53079.72;;;-144.14;100.00
7075;BME280;3578;51.568;6.932;2022-10-26T00:28:10;53055.69;;;-144.14;100.00
7075;BME280;3578;51.568;6.932;2022-10-26T00:30:38;53069.72;;;-144.14;100.00
7075;BME280;3578;51.568;6.932;2022-10-26T00:33:11;53087.75;;;-144.14;100.00
7075;BME280;3578;51.568;6.932;2022-10-26T00:35:38;53083.72;;;-144.14;100.00
7075;BME280;3578;51.568;6.932;2022-10-26T00:38:05;53103.78;;;-144.14;100.00
7075;BME280;3578;51.568;6.932;2022-10-26T00:40:32;53109.78;;;-144.14;100.00
7075;BME280;3578;51.568;6.932;2022-10-26T00:42:59;53089.75;;;-144.14;100.00
7075;BME280;3578;51.568;6.932;2022-10-26T00:45:29;53081.72;;;-144.14;100.00
7075;BME280;3578;51.568;6.932;2022-10-26T00:47:58;53103.78;;;-144.14;100.00
7075;BME280;3578;51.568;6.932;2022-10-26T00:50:32;53091.75;;;-144.14;100.00
7075;BME280;3578;51.568;6.932;2022-10-26T00:53:02;53089.75;;;-144.14;100.00
7075;BME280;3578;51.568;6.932;2022-10-26T00:55:33;53109.78;;;-144.14;100.00
7075;BME280;3578;51.568;6.932;2022-10-26T00:58:03;53097.75;;;-144.14;100.00
7075;BME280;3578;51.568;6.932;2022-10-26T01:00:31;53129.81;;;-144.14;100.00
7075;BME280;3578;51.568;6.932;2022-10-26T01:03:01;53107.78;;;-144.14;100.00
7075;BME280;3578;51.568;6.932;2022-10-26T01:05:32;53125.81;;;-144.14;100.00
7075;BME280;3578;51.568;6.932;2022-10-26T01:08:01;53119.81;;;-144.14;100.00
7075;BME280;3578;51.568;6.932;2022-10-26T01:10:28;53161.91;;;-144.14;100.00
7075;BME280;3578;51.568;6.932;2022-10-26T01:12:57;53133.84;;;-144.14;100.00
7075;BME280;3578;51.568;6.932;2022-10-26T01:15:30;53139.84;;;-144.14;100.00
7075;BME280;3578;51.568;6.932;2022-10-26T01:18:09;53129.81;;;-144.14;100.00
7075;BME280;3578;51.568;6.932;2022-10-26T01:23:55;53169.91;;;-144.14;100.00
7075;BME280;3578;51.568;6.932;2022-10-26T01:26:50;53163.91;;;-144.14;100.00
7075;BME280;3578;51.568;6.932;2022-10-26T01:29:52;53145.84;;;-144.14;100.00
7075;BME280;3578;51.568;6.932;2022-10-26T01:32:32;53195.97;;;-144.14;100.00
7075;BME280;3578;51.568;6.932;2022-10-26T01:35:07;53189.94;;;-144.14;100.00
7075;BME280;3578;51.568;6.932;2022-10-26T01:37:38;53228.03;;;-144.14;100.00
7075;BME280;3578;51.568;6.932;2022-10-26T01:40:13;53201.97;;;-144.14;100.00
7075;BME280;3578;51.568;6.932;2022-10-26T01:42:49;53187.94;;;-144.14;100.00
7075;BME280;3578;51.568;6.932;2022-10-26T01:45:18;53199.97;;;-144.14;100.00
7075;BME280;3578;51.568;6.932;2022-10-26T01:47:47;53236.03;;;-144.14;100.00
7075;BME280;3578;51.568;6.932;2022-10-26T01:50:15;53226.03;;;-144.14;100.00
7075;BME280;3578;51.568;6.932;2022-10-26T01:52:44;53234.03;;;-144.14;100.00
7075;BME280;3578;51.568;6.932;2022-10-26T01:55:44;53195.97;;;-144.14;100.00
7075;BME280;3578;51.568;6.932;2022-10-26T01:58:49;53205.97;;;-144.14;100.00
7075;BME280;3578;51.568;6.932;2022-10-26T02:01:36;53238.03;;;-144.14;100.00
7075;BME280;3578;51.568;6.932;2022-10-26T02:04:20;53189.94;;;-144.14;100.00
7075;BME280;3578;51.568;6.932;2022-10-26T02:07:01;53222.00;;;-144.14;100.00
7075;BME280;3578;51.568;6.932;2022-10-26T02:09:36;53244.06;;;-144.14;100.00
7075;BME280;3578;51.568;6.932;2022-10-26T02:12:14;53254.06;;;-144.14;100.00
7075;BME280;3578;51.568;6.932;2022-10-26T02:14:49;53183.94;;;-144.14;100.00
7075;BME280;3578;51.568;6.932;2022-10-26T02:17:25;53238.03;;;-144.14;100.00
7075;BME280;3578;51.568;6.932;2022-10-26T02:19:58;53238.03;;;-144.14;100.00
7075;BME280;3578;51.568;6.932;2022-10-26T02:22:32;53234.03;;;-144.14;100.00
7075;BME280;3578;51.568;6.932;2022-10-26T02:25:05;53232.03;;;-144.14;100.00
7075;BME280;3578;51.568;6.932;2022-10-26T02:27:37;53222.00;;;-144.14;100.00
7075;BME280;3578;51.568;6.932;2022-10-26T02:30:08;53236.03;;;-144.14;100.00
7075;BME280;3578;51.568;6.932;2022-10-26T02:32:40;53171.91;;;-144.14;100.00
7075;BME280;3578;51.568;6.932;2022-10-26T02:35:11;53201.97;;;-144.14;100.00
7075;BME280;3578;51.568;6.932;2022-10-26T02:37:40;53205.97;;;-144.14;100.00
7075;BME280;3578;51.568;6.932;2022-10-26T02:40:13;53218.00;;;-144.14;100.00
7075;BME280;3578;51.568;6.932;2022-10-26T02:42:44;53208.00;;;-144.14;100.00
7075;BME280;3578;51.568;6.932;2022-10-26T02:45:17;53242.06;;;-144.14;100.00
7075;BME280;3578;51.568;6.932;2022-10-26T02:47:46;53210.00;;;-144.14;100.00
7075;BME280;3578;51.568;6.932;2022-10-26T02:50:15;53210.00;;;-144.14;100.00
7075;BME280;3578;51.568;6.932;2022-10-26T02:52:50;53208.00;;;-144.14;100.00
7075;BME280;3578;51.568;6.932;2022-10-26T02:55:24;53220.00;;;-144.14;100.00
7075;BME280;3578;51.568;6.932;2022-10-26T02:57:56;53248.06;;;-144.14;100.00
7075;BME280;3578;51.568;6.932;2022-10-26T03:00:25;53169.91;;;-144.14;100.00
7075;BME280;3578;51.568;6.932;2022-10-26T03:02:55;53212.00;;;-144.14;100.00
7075;BME280;3578;51.568;6.932;2022-10-26T03:05:26;53224.03;;;-144.14;100.00
7075;BME280;3578;51.568;6.932;2022-10-26T03:07:54;53187.94;;;-144.14;100.00
7075;BME280;3578;51.568;6.932;2022-10-26T03:10:22;53220.00;;;-144.14;100.00
7075;BME280;3578;51.568;6.932;2022-10-26T03:12:50;53171.91;;;-144.14;100.00
7075;BME280;3578;51.568;6.932;2022-10-26T03:15:18;53197.97;;;-144.14;100.00
7075;BME280;3578;51.568;6.932;2022-10-26T03:17:45;53205.97;;;-144.14;100.00
7075;BME280;3578;51.568;6.932;2022-10-26T03:20:13;53210.00;;;-144.14;100.00
7075;BME280;3578;51.568;6.932;2022-10-26T03:22:41;53210.00;;;-144.14;100.00
7075;BME280;3578;51.568;6.932;2022-10-26T03:25:08;53218.00;;;-144.14;100.00
7075;BME280;3578;51.568;6.932;2022-10-26T03:27:35;53165.91;;;-144.14;100.00
7075;BME280;3578;51.568;6.932;2022-10-26T03:30:03;53218.00;;;-144.14;100.00
7075;BME280;3578;51.568;6.932;2022-10-26T03:32:30;53210.00;;;-144.14;100.00
7075;BME280;3578;51.568;6.932;2022-10-26T03:34:57;53214.00;;;-144.14;100.00
7075;BME280;3578;51.568;6.932;2022-10-26T03:37:24;53258.09;;;-144.14;100.00
7075;BME280;3578;51.568;6.932;2022-10-26T03:39:53;53222.00;;;-144.14;100.00
7075;BME280;3578;51.568;6.932;2022-10-26T03:42:20;53210.00;;;-144.14;100.00
7075;BME280;3578;51.568;6.932;2022-10-26T03:44:46;53232.03;;;-144.14;100.00
7075;BME280;3578;51.568;6.932;2022-10-26T03:47:13;53226.03;;;-144.14;100.00
7075;BME280;3578;51.568;6.932;2022-10-26T03:49:40;53238.03;;;-144.14;100.00
7075;BME280;3578;51.568;6.932;2022-10-26T03:52:07;53242.06;;;-144.14;100.00
7075;BME280;3578;51.568;6.932;2022-10-26T03:54:34;53218.00;;;-144.14;100.00
7075;BME280;3578;51.568;6.932;2022-10-26T03:57:03;53262.09;;;-144.14;100.00
7075;BME280;3578;51.568;6.932;2022-10-26T03:59:30;53266.09;;;-144.14;100.00
7075;BME280;3578;51.568;6.932;2022-10-26T04:01:57;53250.06;;;-144.14;100.00
7075;BME280;3578;51.568;6.932;2022-10-26T04:04:24;53238.03;;;-144.14;100.00
7075;BME280;3578;51.568;6.932;2022-10-26T04:06:51;53250.06;;;-144.14;100.00
7075;BME280;3578;51.568;6.932;2022-10-26T04:09:18;53258.09;;;-144.14;100.00
7075;BME280;3578;51.568;6.932;2022-10-26T04:11:44;53266.09;;;-144.14;100.00
7075;BME280;3578;51.568;6.932;2022-10-26T04:14:13;53262.09;;;-144.14;100.00
7075;BME280;3578;51.568;6.932;2022-10-26T04:16:40;53276.13;;;-144.14;100.00
7075;BME280;3578;51.568;6.932;2022-10-26T04:19:06;53294.16;;;-144.14;100.00
7075;BME280;3578;51.568;6.932;2022-10-26T04:21:33;53272.13;;;-144.14;100.00
7075;BME280;3578;51.568;6.932;2022-10-26T04:24:00;53318.22;;;-144.14;100.00
7075;BME280;3578;51.568;6.932;2022-10-26T04:26:28;53288.16;;;-144.14;100.00
7075;BME280;3578;51.568;6.932;2022-10-26T04:28:55;53304.19;;;-144.14;100.00
7075;BME280;3578;51.568;6.932;2022-10-26T04:31:23;53302.19;;;-144.14;100.00
7075;BME280;3578;51.568;6.932;2022-10-26T04:33:50;53312.19;;;-144.14;100.00
7075;BME280;3578;51.568;6.932;2022-10-26T04:36:17;53310.19;;;-144.14;100.00
7075;BME280;3578;51.568;6.932;2022-10-26T04:38:44;53294.16;;;-144.14;100.00
7075;BME280;3578;51.568;6.932;2022-10-26T04:41:11;53314.19;;;-144.14;100.00
7075;BME280;3578;51.568;6.932;2022-10-26T04:43:38;53296.16;;;-144.14;100.00
7075;BME280;3578;51.568;6.932;2022-10-26T04:46:05;53278.13;;;-144.14;100.00
7075;BME280;3578;51.568;6.932;2022-10-26T04:48:33;53258.09;;;-144.14;100.00
7075;BME280;3578;51.568;6.932;2022-10-26T04:51:00;53304.19;;;-144.14;100.00
7075;BME280;3578;51.568;6.932;2022-10-26T04:53:27;53302.19;;;-144.14;100.00
7075;BME280;3578;51.568;6.932;2022-10-26T04:55:58;53326.22;;;-144.14;100.00
7075;BME280;3578;51.568;6.932;2022-10-26T04:58:26;53330.25;;;-144.14;100.00
7075;BME280;3578;51.568;6.932;2022-10-26T05:00:53;53308.19;;;-144.14;100.00
7075;BME280;3578;51.568;6.932;2022-10-26T05:03:20;53350.28;;;-144.14;100.00
7075;BME280;3578;51.568;6.932;2022-10-26T05:05:49;53312.19;;;-144.14;100.00
7075;BME280;3578;51.568;6.932;2022-10-26T05:08:16;53358.28;;;-144.14;100.00
7075;BME280;3578;51.568;6.932;2022-10-26T05:10:47;53360.28;;;-144.14;100.00
7075;BME280;3578;51.568;6.932;2022-10-26T05:13:14;53338.25;;;-144.14;100.00
7075;BME280;3578;51.568;6.932;2022-10-26T05:15:41;53362.31;;;-144.14;100.00
7075;BME280;3578;51.568;6.932;2022-10-26T05:18:08;53354.28;;;-144.14;100.00
7075;BME280;3578;51.568;6.932;2022-10-26T05:20:36;53312.19;;;-144.14;100.00
7075;BME280;3578;51.568;6.932;2022-10-26T05:23:08;53362.31;;;-144.14;100.00
7075;BME280;3578;51.568;6.932;2022-10-26T05:25:37;53306.19;;;-144.14;100.00
7075;BME280;3578;51.568;6.932;2022-10-26T05:28:06;53326.22;;;-144.14;100.00
7075;BME280;3578;51.568;6.932;2022-10-26T05:30:36;53300.19;;;-144.14;100.00
7075;BME280;3578;51.568;6.932;2022-10-26T05:33:03;53322.22;;;-144.14;100.00
7075;BME280;3578;51.568;6.932;2022-10-26T05:35:32;53272.13;;;-144.14;100.00
7075;BME280;3578;51.568;6.932;2022-10-26T05:38:06;53296.16;;;-144.14;100.00
7075;BME280;3578;51.568;6.932;2022-10-26T05:40:33;53318.22;;;-144.14;100.00
7075;BME280;3578;51.568;6.932;2022-10-26T05:43:01;53298.16;;;-144.14;100.00
7075;BME280;3578;51.568;6.932;2022-10-26T05:45:28;53312.19;;;-144.14;100.00
7075;BME280;3578;51.568;6.932;2022-10-26T05:47:55;53310.19;;;-144.14;100.00
7075;BME280;3578;51.568;6.932;2022-10-26T05:50:22;53330.25;;;-144.14;100.00
7075;BME280;3578;51.568;6.932;2022-10-26T05:52:49;53328.22;;;-144.14;100.00
7075;BME280;3578;51.568;6.932;2022-10-26T05:55:18;53326.22;;;-144.14;100.00
7075;BME280;3578;51.568;6.932;2022-10-26T05:57:46;53338.25;;;-144.14;100.00
7075;BME280;3578;51.568;6.932;2022-10-26T06:00:19;53336.25;;;-144.14;100.00
7075;BME280;3578;51.568;6.932;2022-10-26T06:03:07;53354.28;;;-144.14;100.00
7075;BME280;3578;51.568;6.932;2022-10-26T06:05:40;53338.25;;;-144.14;100.00
7075;BME280;3578;51.568;6.932;2022-10-26T06:08:12;53342.25;;;-144.14;100.00
7075;BME280;3578;51.568;6.932;2022-10-26T06:10:41;53338.25;;;-144.14;100.00
7075;BME280;3578;51.568;6.932;2022-10-26T06:13:08;53380.34;;;-144.14;100.00
7075;BME280;3578;51.568;6.932;2022-10-26T06:15:48;53366.31;;;-144.14;100.00
7075;BME280;3578;51.568;6.932;2022-10-26T06:18:24;53386.34;;;-144.14;100.00
7075;BME280;3578;51.568;6.932;2022-10-26T06:21:21;53384.34;;;-144.14;100.00
7075;BME280;3578;51.568;6.932;2022-10-26T06:23:56;53334.25;;;-144.14;100.00
7075;BME280;3578;51.568;6.932;2022-10-26T06:26:36;53356.28;;;-144.14;100.00
7075;BME280;3578;51.568;6.932;2022-10-26T06:29:19;53396.38;;;-144.14;100.00
7075;BME280;3578;51.568;6.932;2022-10-26T06:31:48;53378.34;;;-144.14;100.00
7075;BME280;3578;51.568;6.932;2022-10-26T06:34:21;53380.34;;;-144.14;100.00
7075;BME280;3578;51.568;6.932;2022-10-26T06:36:51;53388.34;;;-144.14;100.00
7075;BME280;3578;51.568;6.932;2022-10-26T06:39:19;53342.25;;;-144.14;100.00
7075;BME280;3578;51.568;6.932;2022-10-26T06:41:49;53384.34;;;-144.14;100.00
7075;BME280;3578;51.568;6.932;2022-10-26T06:44:21;53390.34;;;-144.14;100.00
7075;BME280;3578;51.568;6.932;2022-10-26T06:46:56;53384.34;;;-144.14;100.00
7075;BME280;3578;51.568;6.932;2022-10-26T06:49:30;53364.31;;;-144.14;100.00
7075;BME280;3578;51.568;6.932;2022-10-26T06:52:00;53396.38;;;-144.14;100.00
7075;BME280;3578;51.568;6.932;2022-10-26T06:54:44;53366.31;;;-144.14;100.00
7075;BME280;3578;51.568;6.932;2022-10-26T06:57:15;53388.34;;;-144.14;100.00
7075;BME280;3578;51.568;6.932;2022-10-26T06:59:46;53356.28;;;-144.14;100.00
7075;BME280;3578;51.568;6.932;2022-10-26T07:02:15;53398.38;;;-144.14;100.00
7075;BME280;3578;51.568;6.932;2022-10-26T07:04:42;53410.41;;;-144.14;100.00
7075;BME280;3578;51.568;6.932;2022-10-26T07:07:12;53366.31;;;-144.14;100.00
7075;BME280;3578;51.568;6.932;2022-10-26T07:09:40;53350.28;;;-144.14;100.00
7075;BME280;3578;51.568;6.932;2022-10-26T07:12:07;53428.44;;;-144.14;100.00
7075;BME280;3578;51.568;6.932;2022-10-26T07:14:35;53426.44;;;-144.14;100.00
7075;BME280;3578;51.568;6.932;2022-10-26T07:17:04;53438.47;;;-144.14;100.00
7075;BME280;3578;51.568;6.932;2022-10-26T07:19:31;53414.41;;;-144.14;100.00
7075;BME280;3578;51.568;6.932;2022-10-26T07:21:58;53452.50;;;-144.14;100.00
7075;BME280;3578;51.568;6.932;2022-10-26T07:24:25;53422.44;;;-144.14;100.00
7075;BME280;3578;51.568;6.932;2022-10-26T07:26:53;53456.50;;;-144.14;100.00
7075;BME280;3578;51.568;6.932;2022-10-26T07:29:20;53488.56;;;-144.14;100.00
7075;BME280;3578;51.568;6.932;2022-10-26T07:31:48;53522.63;;;-144.14;100.00
7075;BME280;3578;51.568;6.932;2022-10-26T07:34:15;53486.56;;;-144.14;100.00
7075;BME280;3578;51.568;6.932;2022-10-26T07:36:43;53502.59;;;-144.14;100.00
7075;BME280;3578;51.568;6.932;2022-10-26T07:39:10;53488.56;;;-144.14;100.00
7075;BME280;3578;51.568;6.932;2022-10-26T07:41:37;53542.69;;;-144.14;100.00
7075;BME280;3578;51.568;6.932;2022-10-26T07:44:04;53570.75;;;-144.14;100.00
7075;BME280;3578;51.568;6.932;2022-10-26T07:46:31;53580.75;;;-144.14;100.00
7075;BME280;3578;51.568;6.932;2022-10-26T07:48:59;53586.78;;;-144.14;100.00
7075;BME280;3578;51.568;6.932;2022-10-26T07:51:27;53622.84;;;-144.14;100.00
7075;BME280;3578;51.568;6.932;2022-10-26T07:53:53;53612.84;;;-144.14;100.00
7075;BME280;3578;51.568;6.932;2022-10-26T07:56:20;53650.91;;;-144.14;100.00
7075;BME280;3578;51.568;6.932;2022-10-26T07:58:47;53650.91;;;-144.14;100.00
7075;BME280;3578;51.568;6.932;2022-10-26T08:01:15;53682.97;;;-144.14;100.00
7075;BME280;3578;51.568;6.932;2022-10-26T08:03:42;53739.09;;;-144.14;100.00
7075;BME280;3578;51.568;6.932;2022-10-26T08:06:10;53787.22;;;-144.14;100.00
7075;BME280;3578;51.568;6.932;2022-10-26T08:08:37;53841.34;;;-144.14;100.00
7075;BME280;3578;51.568;6.932;2022-10-26T08:11:05;53897.47;;;-144.14;100.00
7075;BME280;3578;51.568;6.932;2022-10-26T08:13:32;53901.47;;;-144.14;100.00
7075;BME280;3578;51.568;6.932;2022-10-26T08:16:02;53979.63;;;-144.14;100.00
7075;BME280;3578;51.568;6.932;2022-10-26T08:18:30;54039.78;;;-144.14;100.00
7075;BME280;3578;51.568;6.932;2022-10-26T08:21:02;54107.94;;;-144.14;99.72
7075;BME280;3578;51.568;6.932;2022-10-26T08:23:31;54160.06;;;-144.14;97.66
7075;BME280;3578;51.568;6.932;2022-10-26T08:25:58;54218.19;;;-144.14;97.57
7075;BME280;3578;51.568;6.932;2022-10-26T08:28:25;54196.13;;;-144.14;98.13
7075;BME280;3578;51.568;6.932;2022-10-26T08:30:52;54204.16;;;-144.14;98.74
7075;BME280;3578;51.568;6.932;2022-10-26T08:33:20;54200.16;;;-144.14;98.83
7075;BME280;3578;51.568;6.932;2022-10-26T08:35:47;54232.22;;;-144.14;97.10
7075;BME280;3578;51.568;6.932;2022-10-26T08:38:14;54272.31;;;-144.14;96.90
7075;BME280;3578;51.568;6.932;2022-10-26T08:40:42;54282.34;;;-144.14;96.84
7075;BME280;3578;51.568;6.932;2022-10-26T08:43:16;54334.47;;;-144.14;96.57
7075;BME280;3578;51.568;6.932;2022-10-26T08:45:49;54356.50;;;-144.14;96.75
7075;BME280;3578;51.568;6.932;2022-10-26T08:48:22;54338.47;;;-144.14;96.92
7075;BME280;3578;51.568;6.932;2022-10-26T08:50:53;54388.59;;;-144.14;96.75
7075;BME280;3578;51.568;6.932;2022-10-26T08:53:27;54414.66;;;-144.14;96.18
7075;BME280;3578;51.568;6.932;2022-10-26T08:56:03;54452.75;;;-144.14;96.14
7075;BME280;3578;51.568;6.932;2022-10-26T08:58:37;54464.78;;;-144.14;96.72
7075;BME280;3578;51.568;6.932;2022-10-26T09:01:07;54460.75;;;-144.14;96.68
7075;BME280;3578;51.568;6.932;2022-10-26T09:03:34;54490.84;;;-144.14;94.01
7075;BME280;3578;51.568;6.932;2022-10-26T09:06:15;54512.88;;;-144.14;92.32
7075;BME280;3578;51.568;6.932;2022-10-26T09:08:55;54597.09;;;-144.14;92.12
7075;BME280;3578;51.568;6.932;2022-10-26T09:11:39;54719.38;;;-144.14;91.31
7075;BME280;3578;51.568;6.932;2022-10-26T09:14:17;54717.38;;;-144.14;92.14
7075;BME280;3578;51.568;6.932;2022-10-26T09:16:56;54685.31;;;-144.14;91.79
7075;BME280;3578;51.568;6.932;2022-10-26T09:19:48;54745.47;;;-144.14;90.50
7075;BME280;3578;51.568;6.932;2022-10-26T09:22:25;54761.50;;;-144.14;90.63
7075;BME280;3578;51.568;6.932;2022-10-26T09:24:57;54797.59;;;-144.14;89.68
7075;BME280;3578;51.568;6.932;2022-10-26T09:27:34;54789.56;;;-144.14;89.63
7075;BME280;3578;51.568;6.932;2022-10-26T09:30:13;54801.59;;;-144.14;90.17
7075;BME280;3578;51.568;6.932;2022-10-26T09:32:45;54819.63;;;-144.14;89.46
7075;BME280;3578;51.568;6.932;2022-10-26T09:35:16;54821.66;;;-144.14;89.33
7075;BME280;3578;51.568;6.932;2022-10-26T09:37:50;54845.72;;;-144.14;89.08
7075;BME280;3578;51.568;6.932;2022-10-26T09:40:23;54909.88;;;-144.14;89.01
7075;BME280;3578;51.568;6.932;2022-10-26T09:42:57;54958.00;;;-144.14;88.81
7075;BME280;3578;51.568;6.932;2022-10-26T09:45:31;55012.13;;;-144.14;88.32
7075;BME280;3578;51.568;6.932;2022-10-26T09:48:04;55006.13;;;-144.14;88.75
7075;BME280;3578;51.568;6.932;2022-10-26T09:50:34;55080.31;;;-144.14;87.02
7075;BME280;3578;51.568;6.932;2022-10-26T09:53:02;55110.38;;;-144.14;86.61
7075;BME280;3578;51.568;6.932;2022-10-26T09:55:30;55106.38;;;-144.14;86.21
7075;BME280;3578;51.568;6.932;2022-10-26T09:58:02;55130.44;;;-144.14;85.91
7075;BME280;3578;51.568;6.932;2022-10-26T10:00:33;55100.34;;;-144.14;85.99
7075;BME280;3578;51.568;6.932;2022-10-26T10:03:00;55120.41;;;-144.14;86.76
7075;BME280;3578;51.568;6.932;2022-10-26T10:05:30;55158.50;;;-144.14;86.86
7075;BME280;3578;51.568;6.932;2022-10-26T10:08:16;55184.56;;;-144.14;84.72
7075;BME280;3578;51.568;6.932;2022-10-26T10:11:01;55132.44;;;-144.14;85.12
7075;BME280;3578;51.568;6.932;2022-10-26T10:13:32;55100.34;;;-144.14;86.28
7075;BME280;3578;51.568;6.932;2022-10-26T10:16:07;55148.47;;;-144.14;85.94
7075;BME280;3578;51.568;6.932;2022-10-26T10:18:37;55134.44;;;-144.14;85.88
7075;BME280;3578;51.568;6.932;2022-10-26T10:21:05;55172.53;;;-144.14;85.38
7075;BME280;3578;51.568;6.932;2022-10-26T10:23:35;55162.50;;;-144.14;86.14
7075;BME280;3578;51.568;6.932;2022-10-26T10:26:08;55190.59;;;-144.14;85.24
7075;BME280;3578;51.568;6.932;2022-10-26T10:28:40;55204.63;;;-144.14;85.15
7075;BME280;3578;51.568;6.932;2022-10-26T10:31:19;55204.63;;;-144.14;85.82
7075;BME280;3578;51.568;6.932;2022-10-26T10:33:47;55228.69;;;-144.14;86.23
7075;BME280;3578;51.568;6.932;2022-10-26T10:36:17;55236.72;;;-144.14;85.06
7075;BME280;3578;51.568;6.932;2022-10-26T10:38:48;55258.78;;;-144.14;85.78
7075;BME280;3578;51.568;6.932;2022-10-26T10:41:20;55298.88;;;-144.14;86.30
7075;BME280;3578;51.568;6.932;2022-10-26T10:43:52;55320.94;;;-144.14;85.11
7075;BME280;3578;51.568;6.932;2022-10-26T10:46:23;55302.88;;;-144.14;85.02
7075;BME280;3578;51.568;6.932;2022-10-26T10:49:00;55300.88;;;-144.14;84.75
7075;BME280;3578;51.568;6.932;2022-10-26T10:51:35;55353.03;;;-144.14;84.19
7075;BME280;3578;51.568;6.932;2022-10-26T10:54:05;55334.97;;;-144.14;84.43
7075;BME280;3578;51.568;6.932;2022-10-26T10:56:39;55343.00;;;-144.14;85.08
7075;BME280;3578;51.568;6.932;2022-10-26T10:59:30;55318.94;;;-144.14;84.80
7075;BME280;3578;51.568;6.932;2022-10-26T11:02:23;55334.97;;;-144.14;85.47
7075;BME280;3578;51.568;6.932;2022-10-26T11:05:06;55322.94;;;-144.14;86.10
7075;BME280;3578;51.568;6.932;2022-10-26T11:07:45;55351.00;;;-144.14;85.77
7075;BME280;3578;51.568;6.932;2022-10-26T11:10:17;55381.09;;;-144.14;85.72
7075;BME280;3578;51.568;6.932;2022-10-26T11:12:50;55334.97;;;-144.14;85.98
7075;BME280;3578;51.568;6.932;2022-10-26T11:15:23;55405.16;;;-144.14;85.71
7075;BME280;3578;51.568;6.932;2022-10-26T11:17:59;55419.19;;;-144.14;85.83
7075;BME280;3578;51.568;6.932;2022-10-26T11:20:31;55395.13;;;-144.14;85.75
7075;BME280;3578;51.568;6.932;2022-10-26T11:23:04;55397.13;;;-144.14;85.78
7075;BME280;3578;51.568;6.932;2022-10-26T11:25:40;55371.06;;;-144.14;85.66
7075;BME280;3578;51.568;6.932;2022-10-26T11:28:15;55389.13;;;-144.14;86.39
7075;BME280;3578;51.568;6.932;2022-10-26T11:30:48;55367.06;;;-144.14;86.35
7075;BME280;3578;51.568;6.932;2022-10-26T11:33:22;55379.09;;;-144.14;86.37
7075;BME280;3578;51.568;6.932;2022-10-26T11:35:57;55383.09;;;-144.14;87.14
7075;BME280;3578;51.568;6.932;2022-10-26T11:38:35;55407.16;;;-144.14;86.22
7075;BME280;3578;51.568;6.932;2022-10-26T11:41:10;55427.22;;;-144.14;85.53
7075;BME280;3578;51.568;6.932;2022-10-26T11:43:42;55451.28;;;-144.14;86.08
7075;BME280;3578;51.568;6.932;2022-10-26T11:46:16;55369.06;;;-144.14;86.55
7075;BME280;3578;51.568;6.932;2022-10-26T11:48:48;55401.16;;;-144.14;86.66
7075;BME280;3578;51.568;6.932;2022-10-26T11:51:30;55433.22;;;-144.14;86.74
7075;BME280;3578;51.568;6.932;2022-10-26T11:54:04;55423.22;;;-144.14;86.81
7075;BME280;3578;51.568;6.932;2022-10-26T11:56:37;55437.25;;;-144.14;86.86
7075;BME280;3578;51.568;6.932;2022-10-26T11:59:16;55471.34;;;-144.14;86.81
7075;BME280;3578;51.568;6.932;2022-10-26T12:01:47;55445.25;;;-144.14;86.99
7075;BME280;3578;51.568;6.932;2022-10-26T12:04:18;55495.41;;;-144.14;86.67
7075;BME280;3578;51.568;6.932;2022-10-26T12:06:49;55487.38;;;-144.14;86.68
7075;BME280;3578;51.568;6.932;2022-10-26T12:09:21;55545.53;;;-144.14;86.86
7075;BME280;3578;51.568;6.932;2022-10-26T12:11:57;55493.41;;;-144.14;87.57
7075;BME280;3578;51.568;6.932;2022-10-26T12:14:35;55455.28;;;-144.14;87.79
7075;BME280;3578;51.568;6.932;2022-10-26T12:17:10;55529.50;;;-144.14;87.31
7075;BME280;3578;51.568;6.932;2022-10-26T12:19:45;55531.50;;;-144.14;87.18
7075;BME280;3578;51.568;6.932;2022-10-26T12:22:17;55551.56;;;-144.14;87.06
7075;BME280;3578;51.568;6.932;2022-10-26T12:24:46;55589.66;;;-144.14;87.48
7075;BME280;3578;51.568;6.932;2022-10-26T12:27:32;55547.53;;;-144.14;87.18
7075;BME280;3578;51.568;6.932;2022-10-26T12:30:25;55563.59;;;-144.14;86.65
7075;BME280;3578;51.568;6.932;2022-10-26T12:32:55;55567.59;;;-144.14;86.47
7075;BME280;3578;51.568;6.932;2022-10-26T12:35:43;55593.66;;;-144.14;86.85
7075;BME280;3578;51.568;6.932;2022-10-26T12:38:55;55595.69;;;-144.14;86.68
7075;BME280;3578;51.568;6.932;2022-10-26T12:41:24;55627.75;;;-144.14;86.89
7075;BME280;3578;51.568;6.932;2022-10-26T12:44:02;55665.88;;;-144.14;85.90
7075;BME280;3578;51.568;6.932;2022-10-26T12:46:37;55661.84;;;-144.14;85.95
7075;BME280;3578;51.568;6.932;2022-10-26T12:52:42;55675.91;;;-144.14;85.27
7075;BME280;3578;51.568;6.932;2022-10-26T12:55:49;55718.00;;;-144.14;85.91
7075;BME280;3578;51.568;6.932;2022-10-26T12:58:57;55703.97;;;-144.14;85.77
7075;BME280;3578;51.568;6.932;2022-10-26T13:01:49;55679.91;;;-144.14;85.40
7075;BME280;3578;51.568;6.932;2022-10-26T13:08:03;55635.78;;;-144.14;86.37
7075;BME280;3578;51.568;6.932;2022-10-26T13:10:31;55617.72;;;-144.14;87.12
7075;BME280;3578;51.568;6.932;2022-10-26T13:13:01;55659.84;;;-144.14;86.19
7075;BME280;3578;51.568;6.932;2022-10-26T13:15:36;55681.91;;;-144.14;86.30
7075;BME280;3578;51.568;6.932;2022-10-26T13:18:09;55695.94;;;-144.14;87.07
7075;BME280;3578;51.568;6.932;2022-10-26T13:20:53;55647.81;;;-144.14;86.65
7075;BME280;3578;51.568;6.932;2022-10-26T13:23:28;55685.91;;;-144.14;86.99
7075;BME280;3578;51.568;6.932;2022-10-26T13:26:08;55635.78;;;-144.14;87.41
7075;BME280;3578;51.568;6.932;2022-10-26T13:28:49;55619.75;;;-144.14;87.84